sensor_id;sensor_type;location;lat;lon;timestamp;P1;durP1;ratioP1;P2;durP2;ratioP2
21890;SDS011;11110;52.386;16.940;2022-08-19T00:00:03;11.80;;;10.30;;
21890;SDS011;11110;52.386;16.940;2022-08-19T00:02:53;14.68;;;9.93;;
21890;SDS011;11110;52.386;16.940;2022-08-19T00:05:22;16.45;;;11.05;;
21890;SDS011;11110;52.386;16.940;2022-08-19T00:07:52;15.10;;;10.85;;
21890;SDS011;11110;52.386;16.940;2022-08-19T00:10:20;13.02;;;11.32;;
21890;SDS011;11110;52.386;16.940;2022-08-19T00:12:50;14.10;;;10.73;;
21890;SDS011;11110;52.386;16.940;2022-08-19T00:15:19;13.07;;;10.82;;
21890;SDS011;11110;52.386;16.940;2022-08-19T00:17:49;13.88;;;10.90;;
21890;SDS011;11110;52.386;16.940;2022-08-19T00:20:19;13.73;;;10.32;;
21890;SDS011;11110;52.386;16.940;2022-08-19T00:22:48;11.95;;;10.60;;
21890;SDS011;11110;52.386;16.940;2022-08-19T00:25:20;15.32;;;10.73;;
21890;SDS011;11110;52.386;16.940;2022-08-19T00:27:56;13.48;;;11.30;;
21890;SDS011;11110;52.386;16.940;2022-08-19T00:30:26;13.52;;;10.70;;
21890;SDS011;11110;52.386;16.940;2022-08-19T00:32:54;12.73;;;10.77;;
21890;SDS011;11110;52.386;16.940;2022-08-19T00:35:23;11.43;;;10.30;;
21890;SDS011;11110;52.386;16.940;2022-08-19T00:37:54;13.20;;;11.60;;
21890;SDS011;11110;52.386;16.940;2022-08-19T00:40:24;12.77;;;10.00;;
21890;SDS011;11110;52.386;16.940;2022-08-19T00:42:52;13.43;;;10.77;;
21890;SDS011;11110;52.386;16.940;2022-08-19T00:45:22;11.88;;;10.52;;
21890;SDS011;11110;52.386;16.940;2022-08-19T00:47:52;13.85;;;10.05;;
21890;SDS011;11110;52.386;16.940;2022-08-19T00:50:21;12.90;;;10.82;;
21890;SDS011;11110;52.386;16.940;2022-08-19T00:52:50;11.85;;;10.15;;
21890;SDS011;11110;52.386;16.940;2022-08-19T00:55:20;13.23;;;10.48;;
21890;SDS011;11110;52.386;16.940;2022-08-19T00:57:54;13.38;;;10.07;;
21890;SDS011;11110;52.386;16.940;2022-08-19T01:00:24;15.60;;;10.48;;
21890;SDS011;11110;52.386;16.940;2022-08-19T01:02:55;11.75;;;10.23;;
21890;SDS011;11110;52.386;16.940;2022-08-19T01:05:24;11.43;;;10.25;;
21890;SDS011;11110;52.386;16.940;2022-08-19T01:07:55;16.38;;;10.98;;
21890;SDS011;11110;52.386;16.940;2022-08-19T01:10:26;12.80;;;10.32;;
21890;SDS011;11110;52.386;16.940;2022-08-19T01:13:04;12.25;;;10.13;;
21890;SDS011;11110;52.386;16.940;2022-08-19T01:15:33;14.20;;;10.52;;
21890;SDS011;11110;52.386;16.940;2022-08-19T01:18:07;14.02;;;9.85;;
21890;SDS011;11110;52.386;16.940;2022-08-19T01:20:38;13.05;;;9.90;;
21890;SDS011;11110;52.386;16.940;2022-08-19T01:23:09;10.98;;;9.85;;
21890;SDS011;11110;52.386;16.940;2022-08-19T01:25:39;12.52;;;9.93;;
21890;SDS011;11110;52.386;16.940;2022-08-19T01:28:14;13.05;;;10.93;;
21890;SDS011;11110;52.386;16.940;2022-08-19T01:30:59;11.02;;;9.77;;
21890;SDS011;11110;52.386;16.940;2022-08-19T01:33:34;13.70;;;10.18;;
21890;SDS011;11110;52.386;16.940;2022-08-19T01:36:06;13.18;;;9.75;;
21890;SDS011;11110;52.386;16.940;2022-08-19T01:38:41;12.02;;;10.25;;
21890;SDS011;11110;52.386;16.940;2022-08-19T01:41:12;12.00;;;9.80;;
21890;SDS011;11110;52.386;16.940;2022-08-19T01:43:41;13.63;;;9.52;;
21890;SDS011;11110;52.386;16.940;2022-08-19T01:46:30;12.95;;;10.13;;
21890;SDS011;11110;52.386;16.940;2022-08-19T01:48:59;14.13;;;10.52;;
21890;SDS011;11110;52.386;16.940;2022-08-19T01:51:27;13.63;;;11.05;;
21890;SDS011;11110;52.386;16.940;2022-08-19T01:54:07;14.60;;;10.25;;
21890;SDS011;11110;52.386;16.940;2022-08-19T01:56:36;17.52;;;11.68;;
21890;SDS011;11110;52.386;16.940;2022-08-19T01:59:06;15.70;;;10.88;;
21890;SDS011;11110;52.386;16.940;2022-08-19T02:01:39;12.60;;;9.40;;
21890;SDS011;11110;52.386;16.940;2022-08-19T02:04:08;15.30;;;10.07;;
21890;SDS011;11110;52.386;16.940;2022-08-19T02:06:36;12.73;;;10.40;;
21890;SDS011;11110;52.386;16.940;2022-08-19T02:09:07;14.65;;;11.15;;
21890;SDS011;11110;52.386;16.940;2022-08-19T02:11:36;11.45;;;9.73;;
21890;SDS011;11110;52.386;16.940;2022-08-19T02:14:06;14.27;;;9.80;;
21890;SDS011;11110;52.386;16.940;2022-08-19T02:16:35;12.18;;;10.20;;
21890;SDS011;11110;52.386;16.940;2022-08-19T02:19:04;11.95;;;9.90;;
21890;SDS011;11110;52.386;16.940;2022-08-19T02:21:34;12.07;;;9.63;;
21890;SDS011;11110;52.386;16.940;2022-08-19T02:24:03;13.35;;;9.68;;
21890;SDS011;11110;52.386;16.940;2022-08-19T02:26:33;13.30;;;10.20;;
21890;SDS011;11110;52.386;16.940;2022-08-19T02:29:02;15.98;;;10.50;;
21890;SDS011;11110;52.386;16.940;2022-08-19T02:31:31;14.25;;;10.25;;
21890;SDS011;11110;52.386;16.940;2022-08-19T02:33:59;14.55;;;10.45;;
21890;SDS011;11110;52.386;16.940;2022-08-19T02:36:28;13.23;;;10.43;;
21890;SDS011;11110;52.386;16.940;2022-08-19T02:38:57;14.82;;;9.95;;
21890;SDS011;11110;52.386;16.940;2022-08-19T02:41:25;12.75;;;10.07;;
21890;SDS011;11110;52.386;16.940;2022-08-19T02:43:56;11.85;;;9.98;;
21890;SDS011;11110;52.386;16.940;2022-08-19T02:46:47;10.43;;;8.48;;
21890;SDS011;11110;52.386;16.940;2022-08-19T02:49:18;16.80;;;10.50;;
21890;SDS011;11110;52.386;16.940;2022-08-19T02:51:47;16.23;;;11.13;;
21890;SDS011;11110;52.386;16.940;2022-08-19T02:54:15;12.20;;;9.43;;
21890;SDS011;11110;52.386;16.940;2022-08-19T02:56:44;12.27;;;9.50;;
21890;SDS011;11110;52.386;16.940;2022-08-19T02:59:14;15.77;;;10.77;;
21890;SDS011;11110;52.386;16.940;2022-08-19T03:01:42;15.32;;;10.05;;
21890;SDS011;11110;52.386;16.940;2022-08-19T03:04:11;13.95;;;10.43;;
21890;SDS011;11110;52.386;16.940;2022-08-19T03:06:42;14.68;;;11.23;;
21890;SDS011;11110;52.386;16.940;2022-08-19T03:09:12;12.93;;;9.93;;
21890;SDS011;11110;52.386;16.940;2022-08-19T03:11:41;10.20;;;8.43;;
21890;SDS011;11110;52.386;16.940;2022-08-19T03:14:10;14.15;;;10.85;;
21890;SDS011;11110;52.386;16.940;2022-08-19T03:16:42;12.73;;;10.05;;
21890;SDS011;11110;52.386;16.940;2022-08-19T03:19:11;13.68;;;10.70;;
21890;SDS011;11110;52.386;16.940;2022-08-19T03:21:41;16.20;;;10.07;;
21890;SDS011;11110;52.386;16.940;2022-08-19T03:24:11;13.02;;;10.85;;
21890;SDS011;11110;52.386;16.940;2022-08-19T03:26:42;14.20;;;10.80;;
21890;SDS011;11110;52.386;16.940;2022-08-19T03:29:12;14.75;;;10.73;;
21890;SDS011;11110;52.386;16.940;2022-08-19T03:31:53;12.55;;;10.13;;
21890;SDS011;11110;52.386;16.940;2022-08-19T03:34:23;15.13;;;10.23;;
21890;SDS011;11110;52.386;16.940;2022-08-19T03:36:54;12.07;;;9.82;;
21890;SDS011;11110;52.386;16.940;2022-08-19T03:39:25;12.77;;;9.73;;
21890;SDS011;11110;52.386;16.940;2022-08-19T03:41:54;12.70;;;10.05;;
21890;SDS011;11110;52.386;16.940;2022-08-19T03:44:44;13.10;;;10.07;;
21890;SDS011;11110;52.386;16.940;2022-08-19T03:47:13;15.38;;;10.20;;
21890;SDS011;11110;52.386;16.940;2022-08-19T03:49:43;16.67;;;10.80;;
21890;SDS011;11110;52.386;16.940;2022-08-19T03:52:13;11.98;;;10.15;;
21890;SDS011;11110;52.386;16.940;2022-08-19T03:54:42;14.75;;;9.70;;
21890;SDS011;11110;52.386;16.940;2022-08-19T03:57:11;15.38;;;10.43;;
21890;SDS011;11110;52.386;16.940;2022-08-19T03:59:39;14.07;;;10.27;;
21890;SDS011;11110;52.386;16.940;2022-08-19T04:02:08;17.00;;;11.60;;
21890;SDS011;11110;52.386;16.940;2022-08-19T04:04:41;15.75;;;11.23;;
21890;SDS011;11110;52.386;16.940;2022-08-19T04:07:11;16.25;;;10.15;;
21890;SDS011;11110;52.386;16.940;2022-08-19T04:09:42;18.10;;;10.85;;
21890;SDS011;11110;52.386;16.940;2022-08-19T04:12:12;12.73;;;10.43;;
21890;SDS011;11110;52.386;16.940;2022-08-19T04:14:41;13.43;;;10.15;;
21890;SDS011;11110;52.386;16.940;2022-08-19T04:17:09;15.27;;;11.18;;
21890;SDS011;11110;52.386;16.940;2022-08-19T04:19:40;12.27;;;10.05;;
21890;SDS011;11110;52.386;16.940;2022-08-19T04:22:09;13.43;;;10.45;;
21890;SDS011;11110;52.386;16.940;2022-08-19T04:24:39;17.67;;;11.15;;
21890;SDS011;11110;52.386;16.940;2022-08-19T04:27:07;14.38;;;9.93;;
21890;SDS011;11110;52.386;16.940;2022-08-19T04:29:35;14.25;;;10.65;;
21890;SDS011;11110;52.386;16.940;2022-08-19T04:32:06;14.13;;;10.82;;
21890;SDS011;11110;52.386;16.940;2022-08-19T04:34:36;17.52;;;11.98;;
21890;SDS011;11110;52.386;16.940;2022-08-19T04:37:26;15.27;;;10.82;;
21890;SDS011;11110;52.386;16.940;2022-08-19T04:40:03;20.20;;;11.57;;
21890;SDS011;11110;52.386;16.940;2022-08-19T04:42:51;15.25;;;11.20;;
21890;SDS011;11110;52.386;16.940;2022-08-19T04:45:20;15.27;;;10.32;;
21890;SDS011;11110;52.386;16.940;2022-08-19T04:47:49;12.57;;;9.90;;
21890;SDS011;11110;52.386;16.940;2022-08-19T04:50:43;17.65;;;10.88;;
21890;SDS011;11110;52.386;16.940;2022-08-19T04:53:12;12.63;;;10.23;;
21890;SDS011;11110;52.386;16.940;2022-08-19T04:55:42;15.07;;;10.88;;
21890;SDS011;11110;52.386;16.940;2022-08-19T04:58:10;17.98;;;10.85;;
21890;SDS011;11110;52.386;16.940;2022-08-19T05:00:39;15.70;;;10.23;;
21890;SDS011;11110;52.386;16.940;2022-08-19T05:03:07;16.73;;;10.73;;
21890;SDS011;11110;52.386;16.940;2022-08-19T05:05:40;15.27;;;11.48;;
21890;SDS011;11110;52.386;16.940;2022-08-19T05:08:10;14.50;;;10.55;;
21890;SDS011;11110;52.386;16.940;2022-08-19T05:10:56;15.18;;;11.05;;
21890;SDS011;11110;52.386;16.940;2022-08-19T05:13:24;13.10;;;10.48;;
21890;SDS011;11110;52.386;16.940;2022-08-19T05:15:53;14.85;;;10.60;;
21890;SDS011;11110;52.386;16.940;2022-08-19T05:18:23;16.60;;;10.95;;
21890;SDS011;11110;52.386;16.940;2022-08-19T05:21:09;15.52;;;10.82;;
21890;SDS011;11110;52.386;16.940;2022-08-19T05:23:58;15.13;;;9.93;;
21890;SDS011;11110;52.386;16.940;2022-08-19T05:26:26;15.20;;;10.77;;
21890;SDS011;11110;52.386;16.940;2022-08-19T05:28:55;16.27;;;10.95;;
21890;SDS011;11110;52.386;16.940;2022-08-19T05:31:23;14.82;;;10.35;;
21890;SDS011;11110;52.386;16.940;2022-08-19T05:33:51;13.10;;;10.10;;
21890;SDS011;11110;52.386;16.940;2022-08-19T05:36:20;18.67;;;11.43;;
21890;SDS011;11110;52.386;16.940;2022-08-19T05:38:48;13.90;;;10.88;;
21890;SDS011;11110;52.386;16.940;2022-08-19T05:41:18;12.98;;;9.80;;
21890;SDS011;11110;52.386;16.940;2022-08-19T05:43:49;15.98;;;10.70;;
21890;SDS011;11110;52.386;16.940;2022-08-19T05:46:18;16.15;;;10.15;;
21890;SDS011;11110;52.386;16.940;2022-08-19T05:48:54;14.23;;;10.45;;
21890;SDS011;11110;52.386;16.940;2022-08-19T05:51:23;15.60;;;10.45;;
21890;SDS011;11110;52.386;16.940;2022-08-19T05:53:55;14.20;;;9.98;;
21890;SDS011;11110;52.386;16.940;2022-08-19T05:56:25;16.38;;;11.18;;
21890;SDS011;11110;52.386;16.940;2022-08-19T05:58:54;13.77;;;10.60;;
21890;SDS011;11110;52.386;16.940;2022-08-19T06:01:24;14.23;;;10.25;;
21890;SDS011;11110;52.386;16.940;2022-08-19T06:03:53;14.02;;;10.13;;
21890;SDS011;11110;52.386;16.940;2022-08-19T06:06:22;17.80;;;10.93;;
21890;SDS011;11110;52.386;16.940;2022-08-19T06:08:50;16.23;;;10.52;;
21890;SDS011;11110;52.386;16.940;2022-08-19T06:11:20;14.55;;;10.85;;
21890;SDS011;11110;52.386;16.940;2022-08-19T06:13:52;15.65;;;10.27;;
21890;SDS011;11110;52.386;16.940;2022-08-19T06:16:26;14.18;;;11.23;;
21890;SDS011;11110;52.386;16.940;2022-08-19T06:18:56;16.65;;;11.15;;
21890;SDS011;11110;52.386;16.940;2022-08-19T06:21:27;16.10;;;10.23;;
21890;SDS011;11110;52.386;16.940;2022-08-19T06:23:56;12.65;;;10.40;;
21890;SDS011;11110;52.386;16.940;2022-08-19T06:26:26;17.23;;;11.15;;
21890;SDS011;11110;52.386;16.940;2022-08-19T06:28:56;15.50;;;10.32;;
21890;SDS011;11110;52.386;16.940;2022-08-19T06:31:25;15.80;;;10.90;;
21890;SDS011;11110;52.386;16.940;2022-08-19T06:33:54;17.88;;;10.98;;
21890;SDS011;11110;52.386;16.940;2022-08-19T06:36:24;15.80;;;10.65;;
21890;SDS011;11110;52.386;16.940;2022-08-19T06:38:58;15.13;;;10.52;;
21890;SDS011;11110;52.386;16.940;2022-08-19T06:41:28;15.02;;;10.60;;
21890;SDS011;11110;52.386;16.940;2022-08-19T06:43:58;13.00;;;10.88;;
21890;SDS011;11110;52.386;16.940;2022-08-19T06:46:28;15.80;;;11.50;;
21890;SDS011;11110;52.386;16.940;2022-08-19T06:49:00;23.40;;;13.20;;
21890;SDS011;11110;52.386;16.940;2022-08-19T06:51:31;18.30;;;10.63;;
21890;SDS011;11110;52.386;16.940;2022-08-19T06:54:07;19.38;;;11.63;;
21890;SDS011;11110;52.386;16.940;2022-08-19T06:56:46;13.30;;;10.52;;
21890;SDS011;11110;52.386;16.940;2022-08-19T06:59:16;14.07;;;10.80;;
21890;SDS011;11110;52.386;16.940;2022-08-19T07:01:47;15.68;;;11.30;;
21890;SDS011;11110;52.386;16.940;2022-08-19T07:04:19;15.27;;;10.30;;
21890;SDS011;11110;52.386;16.940;2022-08-19T07:06:50;18.33;;;11.40;;
21890;SDS011;11110;52.386;16.940;2022-08-19T07:09:41;15.38;;;11.18;;
21890;SDS011;11110;52.386;16.940;2022-08-19T07:12:22;12.73;;;10.25;;
21890;SDS011;11110;52.386;16.940;2022-08-19T07:14:53;16.77;;;11.57;;
21890;SDS011;11110;52.386;16.940;2022-08-19T07:17:21;15.10;;;11.93;;
21890;SDS011;11110;52.386;16.940;2022-08-19T07:19:50;17.60;;;11.07;;
21890;SDS011;11110;52.386;16.940;2022-08-19T07:22:20;18.88;;;11.85;;
21890;SDS011;11110;52.386;16.940;2022-08-19T07:24:50;21.95;;;11.65;;
21890;SDS011;11110;52.386;16.940;2022-08-19T07:27:19;19.23;;;12.18;;
21890;SDS011;11110;52.386;16.940;2022-08-19T07:29:52;19.67;;;12.82;;
21890;SDS011;11110;52.386;16.940;2022-08-19T07:32:25;17.77;;;12.05;;
21890;SDS011;11110;52.386;16.940;2022-08-19T07:34:54;15.75;;;12.13;;
21890;SDS011;11110;52.386;16.940;2022-08-19T07:37:23;17.80;;;11.30;;
21890;SDS011;11110;52.386;16.940;2022-08-19T07:39:58;19.60;;;12.38;;
21890;SDS011;11110;52.386;16.940;2022-08-19T07:42:27;18.17;;;12.20;;
21890;SDS011;11110;52.386;16.940;2022-08-19T07:44:58;20.02;;;12.30;;
21890;SDS011;11110;52.386;16.940;2022-08-19T07:47:27;18.98;;;12.18;;
21890;SDS011;11110;52.386;16.940;2022-08-19T07:50:17;18.98;;;13.07;;
21890;SDS011;11110;52.386;16.940;2022-08-19T07:52:47;22.58;;;13.43;;
21890;SDS011;11110;52.386;16.940;2022-08-19T07:55:20;20.55;;;12.45;;
21890;SDS011;11110;52.386;16.940;2022-08-19T07:58:08;17.17;;;12.95;;
21890;SDS011;11110;52.386;16.940;2022-08-19T08:00:39;20.90;;;13.35;;
21890;SDS011;11110;52.386;16.940;2022-08-19T08:03:07;18.23;;;12.77;;
21890;SDS011;11110;52.386;16.940;2022-08-19T08:05:36;14.05;;;12.18;;
21890;SDS011;11110;52.386;16.940;2022-08-19T08:08:22;18.48;;;12.45;;
21890;SDS011;11110;52.386;16.940;2022-08-19T08:11:15;14.52;;;11.90;;
21890;SDS011;11110;52.386;16.940;2022-08-19T08:13:46;21.80;;;13.27;;
21890;SDS011;11110;52.386;16.940;2022-08-19T08:16:32;16.30;;;12.65;;
21890;SDS011;11110;52.386;16.940;2022-08-19T08:19:13;19.75;;;13.73;;
21890;SDS011;11110;52.386;16.940;2022-08-19T08:21:51;19.88;;;13.10;;
21890;SDS011;11110;52.386;16.940;2022-08-19T08:24:21;17.23;;;12.52;;
21890;SDS011;11110;52.386;16.940;2022-08-19T08:26:54;20.38;;;12.70;;
21890;SDS011;11110;52.386;16.940;2022-08-19T08:29:25;19.70;;;14.25;;
21890;SDS011;11110;52.386;16.940;2022-08-19T08:32:02;20.30;;;14.13;;
21890;SDS011;11110;52.386;16.940;2022-08-19T08:34:40;18.70;;;12.07;;
21890;SDS011;11110;52.386;16.940;2022-08-19T08:37:09;15.77;;;12.93;;
21890;SDS011;11110;52.386;16.940;2022-08-19T08:39:41;18.70;;;13.55;;
21890;SDS011;11110;52.386;16.940;2022-08-19T08:42:12;19.67;;;13.38;;
21890;SDS011;11110;52.386;16.940;2022-08-19T08:44:47;16.85;;;13.52;;
21890;SDS011;11110;52.386;16.940;2022-08-19T08:47:28;17.65;;;13.52;;
21890;SDS011;11110;52.386;16.940;2022-08-19T08:50:04;15.02;;;12.43;;
21890;SDS011;11110;52.386;16.940;2022-08-19T08:52:37;19.50;;;13.25;;
21890;SDS011;11110;52.386;16.940;2022-08-19T08:55:12;22.40;;;15.00;;
21890;SDS011;11110;52.386;16.940;2022-08-19T08:57:49;21.58;;;13.55;;
21890;SDS011;11110;52.386;16.940;2022-08-19T09:00:24;20.05;;;13.65;;
21890;SDS011;11110;52.386;16.940;2022-08-19T09:02:56;18.13;;;13.90;;
21890;SDS011;11110;52.386;16.940;2022-08-19T09:05:30;19.70;;;14.20;;
21890;SDS011;11110;52.386;16.940;2022-08-19T09:08:16;21.40;;;13.85;;
21890;SDS011;11110;52.386;16.940;2022-08-19T09:10:52;20.30;;;13.82;;
21890;SDS011;11110;52.386;16.940;2022-08-19T09:13:26;17.88;;;13.75;;
21890;SDS011;11110;52.386;16.940;2022-08-19T09:16:04;19.60;;;14.18;;
21890;SDS011;11110;52.386;16.940;2022-08-19T09:18:40;21.58;;;13.88;;
21890;SDS011;11110;52.386;16.940;2022-08-19T09:21:11;21.65;;;15.07;;
21890;SDS011;11110;52.386;16.940;2022-08-19T09:23:40;22.67;;;14.77;;
21890;SDS011;11110;52.386;16.940;2022-08-19T09:26:10;19.10;;;13.52;;
21890;SDS011;11110;52.386;16.940;2022-08-19T09:28:42;17.35;;;13.60;;
21890;SDS011;11110;52.386;16.940;2022-08-19T09:31:16;20.00;;;14.30;;
21890;SDS011;11110;52.386;16.940;2022-08-19T09:33:49;20.10;;;13.82;;
21890;SDS011;11110;52.386;16.940;2022-08-19T09:36:20;20.08;;;13.40;;
21890;SDS011;11110;52.386;16.940;2022-08-19T09:39:01;25.17;;;15.15;;
21890;SDS011;11110;52.386;16.940;2022-08-19T09:41:42;18.70;;;12.70;;
21890;SDS011;11110;52.386;16.940;2022-08-19T09:44:15;20.85;;;13.93;;
21890;SDS011;11110;52.386;16.940;2022-08-19T09:46:44;17.38;;;14.02;;
21890;SDS011;11110;52.386;16.940;2022-08-19T09:49:15;16.00;;;13.40;;
21890;SDS011;11110;52.386;16.940;2022-08-19T09:51:45;18.60;;;12.75;;
21890;SDS011;11110;52.386;16.940;2022-08-19T09:54:17;15.73;;;13.40;;
21890;SDS011;11110;52.386;16.940;2022-08-19T09:56:52;17.15;;;12.60;;
21890;SDS011;11110;52.386;16.940;2022-08-19T09:59:20;20.90;;;12.40;;
21890;SDS011;11110;52.386;16.940;2022-08-19T10:01:49;17.75;;;12.75;;
21890;SDS011;11110;52.386;16.940;2022-08-19T10:04:18;18.35;;;13.68;;
21890;SDS011;11110;52.386;16.940;2022-08-19T10:06:49;20.00;;;13.02;;
21890;SDS011;11110;52.386;16.940;2022-08-19T10:09:21;17.52;;;12.88;;
21890;SDS011;11110;52.386;16.940;2022-08-19T10:12:01;21.73;;;13.30;;
21890;SDS011;11110;52.386;16.940;2022-08-19T10:14:32;17.67;;;12.02;;
21890;SDS011;11110;52.386;16.940;2022-08-19T10:17:01;15.43;;;11.98;;
21890;SDS011;11110;52.386;16.940;2022-08-19T10:19:48;18.60;;;12.65;;
21890;SDS011;11110;52.386;16.940;2022-08-19T10:22:22;17.05;;;11.32;;
21890;SDS011;11110;52.386;16.940;2022-08-19T10:24:52;16.10;;;12.80;;
21890;SDS011;11110;52.386;16.940;2022-08-19T10:27:20;15.15;;;11.43;;
21890;SDS011;11110;52.386;16.940;2022-08-19T10:29:49;17.02;;;11.10;;
21890;SDS011;11110;52.386;16.940;2022-08-19T10:32:18;17.27;;;11.95;;
21890;SDS011;11110;52.386;16.940;2022-08-19T10:35:02;16.08;;;11.82;;
21890;SDS011;11110;52.386;16.940;2022-08-19T10:37:35;15.68;;;11.35;;
21890;SDS011;11110;52.386;16.940;2022-08-19T10:40:22;13.00;;;10.38;;
21890;SDS011;11110;52.386;16.940;2022-08-19T10:42:51;14.07;;;9.68;;
21890;SDS011;11110;52.386;16.940;2022-08-19T10:45:19;15.02;;;11.48;;
21890;SDS011;11110;52.386;16.940;2022-08-19T10:47:49;15.85;;;10.98;;
21890;SDS011;11110;52.386;16.940;2022-08-19T10:50:19;15.82;;;10.68;;
21890;SDS011;11110;52.386;16.940;2022-08-19T10:53:06;12.70;;;9.60;;
21890;SDS011;11110;52.386;16.940;2022-08-19T10:55:36;16.00;;;10.85;;
21890;SDS011;11110;52.386;16.940;2022-08-19T10:58:22;16.40;;;11.50;;
21890;SDS011;11110;52.386;16.940;2022-08-19T11:00:53;14.88;;;10.75;;
21890;SDS011;11110;52.386;16.940;2022-08-19T11:03:22;14.63;;;11.10;;
21890;SDS011;11110;52.386;16.940;2022-08-19T11:05:59;15.85;;;11.50;;
21890;SDS011;11110;52.386;16.940;2022-08-19T11:08:28;16.13;;;11.38;;
21890;SDS011;11110;52.386;16.940;2022-08-19T11:10:58;15.88;;;11.52;;
21890;SDS011;11110;52.386;16.940;2022-08-19T11:13:30;18.55;;;11.55;;
21890;SDS011;11110;52.386;16.940;2022-08-19T11:16:03;19.27;;;12.05;;
21890;SDS011;11110;52.386;16.940;2022-08-19T11:18:37;18.02;;;11.73;;
21890;SDS011;11110;52.386;16.940;2022-08-19T11:21:10;17.77;;;12.10;;
21890;SDS011;11110;52.386;16.940;2022-08-19T11:23:40;16.17;;;10.88;;
21890;SDS011;11110;52.386;16.940;2022-08-19T11:26:09;13.48;;;10.30;;
21890;SDS011;11110;52.386;16.940;2022-08-19T11:28:38;12.40;;;10.23;;
21890;SDS011;11110;52.386;16.940;2022-08-19T11:31:09;17.02;;;10.73;;
21890;SDS011;11110;52.386;16.940;2022-08-19T11:33:39;14.82;;;9.98;;
21890;SDS011;11110;52.386;16.940;2022-08-19T11:36:14;18.48;;;11.27;;
21890;SDS011;11110;52.386;16.940;2022-08-19T11:38:44;12.75;;;9.63;;
21890;SDS011;11110;52.386;16.940;2022-08-19T11:41:15;13.20;;;11.10;;
21890;SDS011;11110;52.386;16.940;2022-08-19T11:43:44;15.15;;;10.98;;
21890;SDS011;11110;52.386;16.940;2022-08-19T11:46:14;16.23;;;11.15;;
21890;SDS011;11110;52.386;16.940;2022-08-19T11:48:43;11.68;;;10.23;;
21890;SDS011;11110;52.386;16.940;2022-08-19T11:51:12;14.30;;;10.30;;
21890;SDS011;11110;52.386;16.940;2022-08-19T11:53:49;19.98;;;10.75;;
21890;SDS011;11110;52.386;16.940;2022-08-19T11:56:18;16.13;;;11.10;;
21890;SDS011;11110;52.386;16.940;2022-08-19T11:58:47;12.98;;;9.82;;
21890;SDS011;11110;52.386;16.940;2022-08-19T12:01:17;15.85;;;10.85;;
21890;SDS011;11110;52.386;16.940;2022-08-19T12:03:47;18.42;;;10.73;;
21890;SDS011;11110;52.386;16.940;2022-08-19T12:06:19;15.98;;;10.18;;
21890;SDS011;11110;52.386;16.940;2022-08-19T12:08:50;24.98;;;11.80;;
21890;SDS011;11110;52.386;16.940;2022-08-19T12:11:20;14.57;;;10.00;;
21890;SDS011;11110;52.386;16.940;2022-08-19T12:13:49;18.67;;;11.32;;
21890;SDS011;11110;52.386;16.940;2022-08-19T12:16:18;15.75;;;10.05;;
21890;SDS011;11110;52.386;16.940;2022-08-19T12:18:50;16.95;;;10.48;;
21890;SDS011;11110;52.386;16.940;2022-08-19T12:21:20;22.05;;;11.32;;
21890;SDS011;11110;52.386;16.940;2022-08-19T12:23:51;16.55;;;9.35;;
21890;SDS011;11110;52.386;16.940;2022-08-19T12:26:21;16.73;;;10.38;;
21890;SDS011;11110;52.386;16.940;2022-08-19T12:28:51;18.58;;;10.98;;
21890;SDS011;11110;52.386;16.940;2022-08-19T12:31:20;19.13;;;10.70;;
21890;SDS011;11110;52.386;16.940;2022-08-19T12:33:49;13.80;;;10.38;;
21890;SDS011;11110;52.386;16.940;2022-08-19T12:36:20;15.23;;;10.55;;
21890;SDS011;11110;52.386;16.940;2022-08-19T12:38:49;14.23;;;10.13;;
21890;SDS011;11110;52.386;16.940;2022-08-19T12:41:19;12.50;;;10.40;;
21890;SDS011;11110;52.386;16.940;2022-08-19T12:43:48;13.18;;;9.95;;
21890;SDS011;11110;52.386;16.940;2022-08-19T12:46:18;14.70;;;11.00;;
21890;SDS011;11110;52.386;16.940;2022-08-19T12:48:50;16.55;;;12.55;;
21890;SDS011;11110;52.386;16.940;2022-08-19T12:51:23;17.17;;;11.57;;
21890;SDS011;11110;52.386;16.940;2022-08-19T12:53:53;20.73;;;12.93;;
21890;SDS011;11110;52.386;16.940;2022-08-19T12:56:21;15.32;;;12.43;;
21890;SDS011;11110;52.386;16.940;2022-08-19T12:58:50;19.00;;;13.43;;
21890;SDS011;11110;52.386;16.940;2022-08-19T13:01:19;16.85;;;11.93;;
21890;SDS011;11110;52.386;16.940;2022-08-19T13:03:49;20.27;;;13.45;;
21890;SDS011;11110;52.386;16.940;2022-08-19T13:06:19;15.93;;;12.40;;
21890;SDS011;11110;52.386;16.940;2022-08-19T13:08:49;17.83;;;12.38;;
21890;SDS011;11110;52.386;16.940;2022-08-19T13:11:23;16.85;;;12.48;;
21890;SDS011;11110;52.386;16.940;2022-08-19T13:13:52;19.35;;;13.00;;
21890;SDS011;11110;52.386;16.940;2022-08-19T13:16:21;15.50;;;12.43;;
21890;SDS011;11110;52.386;16.940;2022-08-19T13:18:50;19.95;;;14.70;;
21890;SDS011;11110;52.386;16.940;2022-08-19T13:21:19;16.60;;;12.60;;
21890;SDS011;11110;52.386;16.940;2022-08-19T13:23:51;18.08;;;13.27;;
21890;SDS011;11110;52.386;16.940;2022-08-19T13:26:20;16.90;;;13.48;;
21890;SDS011;11110;52.386;16.940;2022-08-19T13:28:49;18.25;;;13.32;;
21890;SDS011;11110;52.386;16.940;2022-08-19T13:31:36;17.25;;;12.57;;
21890;SDS011;11110;52.386;16.940;2022-08-19T13:34:28;21.33;;;13.48;;
21890;SDS011;11110;52.386;16.940;2022-08-19T13:36:59;23.70;;;14.55;;
21890;SDS011;11110;52.386;16.940;2022-08-19T13:39:31;20.98;;;13.45;;
21890;SDS011;11110;52.386;16.940;2022-08-19T13:42:01;24.92;;;14.15;;
21890;SDS011;11110;52.386;16.940;2022-08-19T13:44:31;20.92;;;13.93;;
21890;SDS011;11110;52.386;16.940;2022-08-19T13:47:00;19.15;;;13.52;;
21890;SDS011;11110;52.386;16.940;2022-08-19T13:49:34;16.33;;;13.93;;
21890;SDS011;11110;52.386;16.940;2022-08-19T13:52:03;17.95;;;14.05;;
21890;SDS011;11110;52.386;16.940;2022-08-19T13:54:34;20.25;;;14.65;;
21890;SDS011;11110;52.386;16.940;2022-08-19T13:57:02;17.13;;;13.57;;
21890;SDS011;11110;52.386;16.940;2022-08-19T13:59:31;17.05;;;13.50;;
21890;SDS011;11110;52.386;16.940;2022-08-19T14:02:00;16.67;;;13.60;;
21890;SDS011;11110;52.386;16.940;2022-08-19T14:04:28;17.45;;;13.68;;
21890;SDS011;11110;52.386;16.940;2022-08-19T14:06:57;17.73;;;14.15;;
21890;SDS011;11110;52.386;16.940;2022-08-19T14:09:25;18.63;;;13.77;;
21890;SDS011;11110;52.386;16.940;2022-08-19T14:11:55;14.68;;;13.13;;
21890;SDS011;11110;52.386;16.940;2022-08-19T14:14:23;19.35;;;14.23;;
21890;SDS011;11110;52.386;16.940;2022-08-19T14:16:52;21.02;;;13.98;;
21890;SDS011;11110;52.386;16.940;2022-08-19T14:19:20;18.60;;;14.13;;
21890;SDS011;11110;52.386;16.940;2022-08-19T14:21:49;17.70;;;14.70;;
21890;SDS011;11110;52.386;16.940;2022-08-19T14:24:17;19.20;;;14.27;;
21890;SDS011;11110;52.386;16.940;2022-08-19T14:26:46;16.92;;;13.05;;
21890;SDS011;11110;52.386;16.940;2022-08-19T14:29:15;17.90;;;13.93;;
21890;SDS011;11110;52.386;16.940;2022-08-19T14:31:44;18.88;;;14.60;;
21890;SDS011;11110;52.386;16.940;2022-08-19T14:34:12;19.75;;;13.93;;
21890;SDS011;11110;52.386;16.940;2022-08-19T14:36:41;16.15;;;14.25;;